createdAt,value
2023-01-25T00:01:50.655Z,104234.00
2023-01-25T00:12:13.792Z,104206.00
2023-01-25T00:22:35.345Z,104190.00
2023-01-25T00:33:07.384Z,104166.00
2023-01-25T00:43:29.089Z,104133.00
2023-01-25T00:54:45.547Z,104121.00
2023-01-25T01:05:29.458Z,104105.00
2023-01-25T01:16:46.936Z,104120.00
2023-01-25T01:27:29.107Z,104119.00
2023-01-25T01:37:51.005Z,104124.00
2023-01-25T01:48:19.039Z,104097.00
2023-01-25T01:58:42.089Z,104102.00
2023-01-25T02:09:05.021Z,104107.00
2023-01-25T02:19:39.529Z,104105.00
2023-01-25T02:30:05.423Z,104096.00
2023-01-25T02:40:27.377Z,104089.00
2023-01-25T02:50:50.144Z,104075.00
2023-01-25T03:01:12.195Z,104066.00
2023-01-25T03:11:37.359Z,104062.00
2023-01-25T03:22:02.258Z,104061.00
2023-01-25T03:32:28.002Z,104043.00
2023-01-25T03:42:53.635Z,104036.00
2023-01-25T03:53:27.409Z,104040.00
2023-01-25T04:03:50.829Z,104029.00
2023-01-25T04:14:14.396Z,104006.00
2023-01-25T04:24:44.001Z,103994.00
2023-01-25T04:35:08.363Z,103972.00
2023-01-25T04:45:30.985Z,103960.00
2023-01-25T04:55:55.303Z,103969.00
2023-01-25T05:06:19.232Z,103940.00
2023-01-25T05:16:42.760Z,103944.00
2023-01-25T05:27:05.356Z,103945.00
2023-01-25T05:38:03.276Z,103942.00
2023-01-25T05:48:25.409Z,103943.00
2023-01-25T05:58:54.360Z,103941.00
2023-01-25T06:09:16.301Z,103933.00
2023-01-25T06:19:41.508Z,103927.00
2023-01-25T06:30:16.420Z,103910.00
2023-01-25T06:40:39.768Z,103915.00
2023-01-25T06:51:03.856Z,103915.00
2023-01-25T07:01:30.217Z,103885.00
2023-01-25T07:11:52.165Z,103877.00
2023-01-25T07:22:15.210Z,103877.00
2023-01-25T07:32:37.024Z,103870.00
2023-01-25T07:43:00.038Z,103870.00
2023-01-25T07:53:24.363Z,103853.00
2023-01-25T08:03:50.796Z,103842.00
2023-01-25T08:14:14.263Z,103841.00
2023-01-25T08:24:37.861Z,103829.00
2023-01-25T08:34:59.634Z,103813.00
2023-01-25T08:45:22.534Z,103816.00
2023-01-25T08:55:44.065Z,103822.00
2023-01-25T09:06:08.017Z,103825.00
2023-01-25T09:16:30.582Z,103812.00
2023-01-25T09:26:59.672Z,103812.00
2023-01-25T09:37:21.409Z,103791.00
2023-01-25T09:47:49.961Z,103793.00
2023-01-25T09:58:15.465Z,103786.00
2023-01-25T10:08:44.563Z,103779.00
2023-01-25T10:19:17.105Z,103769.00
2023-01-25T10:29:40.434Z,103757.00
2023-01-25T10:40:07.530Z,103723.00
2023-01-25T10:50:52.095Z,103718.00
2023-01-25T11:01:25.049Z,103687.00
2023-01-25T11:11:55.501Z,103696.00
2023-01-25T11:22:24.861Z,103671.00
2023-01-25T11:32:48.605Z,103648.00
2023-01-25T11:43:26.333Z,103625.00
2023-01-25T11:53:57.206Z,103601.00
2023-01-25T12:04:56.413Z,103565.00
2023-01-25T12:15:35.815Z,103550.00
2023-01-25T12:26:07.968Z,103533.00
2023-01-25T12:36:35.567Z,103522.00
2023-01-25T12:47:05.850Z,103509.00
2023-01-25T12:57:37.537Z,103486.00
2023-01-25T13:08:08.044Z,103473.00
2023-01-25T13:18:41.945Z,103477.00
2023-01-25T13:29:03.446Z,103462.00
2023-01-25T13:39:49.753Z,103438.00
2023-01-25T13:50:21.576Z,103431.00
2023-01-25T14:00:51.435Z,103415.00
2023-01-25T14:11:19.945Z,103400.00
2023-01-25T14:21:42.885Z,103385.00
2023-01-25T14:32:05.409Z,103385.00
2023-01-25T14:42:28.389Z,103381.00
2023-01-25T14:52:50.099Z,103372.00
2023-01-25T15:03:18.126Z,103338.00
2023-01-25T15:13:39.466Z,103321.00
2023-01-25T15:24:07.367Z,103317.00
2023-01-25T15:34:33.454Z,103309.00
2023-01-25T15:44:56.088Z,103307.00
2023-01-25T15:55:17.639Z,103288.00
2023-01-25T16:05:40.969Z,103289.00
2023-01-25T16:16:02.368Z,103272.00
2023-01-25T16:26:28.728Z,103264.00
2023-01-25T16:36:51.136Z,103231.00
2023-01-25T16:47:15.847Z,103235.00
2023-01-25T16:57:37.414Z,103226.00
2023-01-25T17:08:00.131Z,103203.00
2023-01-25T17:18:21.739Z,103200.00
2023-01-25T17:28:45.718Z,103193.00
2023-01-25T17:39:08.413Z,103191.00
2023-01-25T17:49:32.126Z,103169.00
2023-01-25T17:59:54.004Z,103162.00
2023-01-25T18:10:17.751Z,103144.00
2023-01-25T18:20:39.282Z,103126.00
2023-01-25T18:31:06.274Z,103134.00
2023-01-25T18:41:28.243Z,103123.00
2023-01-25T18:52:08.376Z,103124.00
2023-01-25T19:02:32.879Z,103108.00
2023-01-25T19:12:56.208Z,103096.00
2023-01-25T19:23:18.264Z,103076.00
2023-01-25T19:33:41.497Z,103065.00
2023-01-25T19:44:04.688Z,103061.00
2023-01-25T19:54:28.181Z,103039.00
2023-01-25T20:04:51.252Z,103026.00
2023-01-25T20:15:14.808Z,103013.00
2023-01-25T20:25:36.772Z,103009.00
2023-01-25T20:36:02.239Z,103005.00
2023-01-25T20:46:24.209Z,102996.00
2023-01-25T20:56:48.583Z,102993.00
2023-01-25T21:07:10.235Z,102979.00
2023-01-25T21:17:33.458Z,102989.00
2023-01-25T21:27:55.199Z,102985.00
2023-01-25T21:38:18.588Z,102965.00
2023-01-25T21:48:57.671Z,102943.00
2023-01-25T21:59:21.165Z,102951.00
2023-01-25T22:09:42.984Z,102958.00
2023-01-25T22:20:08.069Z,102939.00
2023-01-25T22:30:31.135Z,102925.00
2023-01-25T22:40:56.407Z,102930.00
2023-01-25T22:51:19.981Z,102922.00
2023-01-25T23:01:42.983Z,102902.00
2023-01-25T23:12:04.682Z,102885.00
2023-01-25T23:22:28.157Z,102877.00
2023-01-25T23:32:50.161Z,102866.00
2023-01-25T23:43:13.033Z,102863.00
2023-01-25T23:53:34.886Z,102850.00
